createdAt,value
2023-12-30T00:00:20.956Z,21.53
2023-12-30T00:01:20.951Z,21.52
2023-12-30T00:02:20.968Z,21.55
2023-12-30T00:03:20.939Z,21.54
2023-12-30T00:04:20.924Z,21.55
2023-12-30T00:05:20.886Z,21.55
2023-12-30T00:06:20.901Z,21.57
2023-12-30T00:07:20.932Z,21.56
2023-12-30T00:08:20.897Z,21.56
2023-12-30T00:09:20.936Z,21.55
2023-12-30T00:10:21.005Z,21.55
2023-12-30T00:11:20.977Z,21.57
2023-12-30T00:12:21.006Z,21.57
2023-12-30T00:13:21.047Z,21.56
2023-12-30T00:14:21.075Z,21.56
2023-12-30T00:15:21.081Z,21.57
2023-12-30T00:16:21.165Z,21.59
2023-12-30T00:17:21.154Z,21.58
2023-12-30T00:18:21.347Z,21.59
2023-12-30T00:19:21.416Z,21.59
2023-12-30T00:20:21.261Z,21.60
2023-12-30T00:21:21.289Z,21.59
2023-12-30T00:22:21.356Z,21.60
2023-12-30T00:23:21.363Z,21.59
2023-12-30T00:24:21.387Z,21.59
2023-12-30T00:25:21.473Z,21.60
2023-12-30T00:26:21.460Z,21.60
2023-12-30T00:27:21.475Z,21.61
2023-12-30T00:28:21.489Z,21.61
2023-12-30T00:29:21.564Z,21.60
2023-12-30T00:30:21.579Z,21.60
2023-12-30T00:31:21.620Z,21.62
2023-12-30T00:32:21.609Z,21.62
2023-12-30T00:33:21.660Z,21.63
2023-12-30T00:34:21.733Z,21.63
2023-12-30T00:35:21.707Z,21.62
2023-12-30T00:36:21.732Z,21.61
2023-12-30T00:37:21.934Z,21.62
2023-12-30T00:38:24.407Z,21.64
2023-12-30T00:39:21.818Z,21.62
2023-12-30T00:40:26.676Z,21.63
2023-12-30T00:41:22.783Z,21.64
2023-12-30T00:42:21.766Z,21.63
2023-12-30T00:43:21.840Z,21.64
2023-12-30T00:44:23.865Z,21.62
2023-12-30T00:45:21.746Z,21.61
2023-12-30T00:46:21.753Z,21.62
2023-12-30T00:47:21.734Z,21.64
2023-12-30T00:48:21.757Z,21.63
2023-12-30T00:49:21.752Z,21.64
2023-12-30T00:50:21.702Z,21.62
2023-12-30T00:51:21.689Z,21.63
2023-12-30T00:52:22.176Z,21.65
2023-12-30T00:53:21.712Z,21.64
2023-12-30T00:54:22.170Z,21.64
2023-12-30T00:55:21.802Z,21.65
2023-12-30T00:56:21.791Z,21.64
2023-12-30T00:57:21.841Z,21.65
2023-12-30T00:58:21.896Z,21.65
2023-12-30T00:59:22.276Z,21.64
2023-12-30T01:00:21.917Z,21.65
2023-12-30T01:01:21.981Z,21.64
2023-12-30T01:02:21.994Z,21.63
2023-12-30T01:03:22.202Z,21.63
2023-12-30T01:04:22.233Z,21.62
2023-12-30T01:05:22.140Z,21.63
2023-12-30T01:06:22.128Z,21.65
2023-12-30T01:07:22.215Z,21.65
2023-12-30T01:08:22.209Z,21.64
2023-12-30T01:09:22.661Z,21.66
2023-12-30T01:10:22.272Z,21.67
2023-12-30T01:11:22.325Z,21.68
2023-12-30T01:12:22.272Z,21.67
2023-12-30T01:13:22.294Z,21.67
2023-12-30T01:14:22.344Z,21.69
2023-12-30T01:15:22.251Z,21.67
2023-12-30T01:16:22.312Z,21.68
2023-12-30T01:17:22.317Z,21.68
2023-12-30T01:18:22.320Z,21.67
2023-12-30T01:19:22.298Z,21.68
2023-12-30T01:20:22.315Z,21.70
2023-12-30T01:21:22.184Z,21.67
2023-12-30T01:22:22.197Z,21.69
2023-12-30T01:23:22.162Z,21.69
2023-12-30T01:24:22.155Z,21.68
2023-12-30T01:25:22.159Z,21.69
2023-12-30T01:26:22.166Z,21.67
2023-12-30T01:27:22.190Z,21.70
2023-12-30T01:28:22.254Z,21.68
2023-12-30T01:29:22.268Z,21.68
2023-12-30T01:30:22.384Z,21.70
2023-12-30T01:31:22.461Z,21.70
2023-12-30T01:32:22.366Z,21.70
2023-12-30T01:33:22.475Z,21.70
2023-12-30T01:34:22.573Z,21.71
2023-12-30T01:35:22.469Z,21.71
2023-12-30T01:36:22.537Z,21.70
2023-12-30T01:37:22.562Z,21.69
2023-12-30T01:38:22.577Z,21.69
2023-12-30T01:39:22.624Z,21.69
2023-12-30T01:40:22.699Z,21.69
2023-12-30T01:41:22.675Z,21.70
2023-12-30T01:42:22.702Z,21.70
2023-12-30T01:43:22.738Z,21.71
2023-12-30T01:44:22.780Z,21.68
2023-12-30T01:45:22.794Z,21.70
2023-12-30T01:46:22.903Z,21.72
2023-12-30T01:47:22.972Z,21.70
2023-12-30T01:48:22.957Z,21.72
2023-12-30T01:49:22.958Z,21.71
2023-12-30T01:50:22.970Z,21.69
2023-12-30T01:51:25.270Z,21.69
2023-12-30T01:52:23.043Z,21.71
2023-12-30T01:53:23.034Z,21.70
2023-12-30T01:54:22.986Z,21.71
2023-12-30T01:55:23.011Z,21.71
2023-12-30T01:56:22.953Z,21.71
2023-12-30T01:57:22.963Z,21.73
2023-12-30T01:58:22.967Z,21.74
2023-12-30T01:59:22.939Z,21.72
2023-12-30T02:00:22.954Z,21.72
2023-12-30T02:01:23.031Z,21.72
2023-12-30T02:02:22.913Z,21.72
2023-12-30T02:03:22.935Z,21.71
2023-12-30T02:04:22.952Z,21.73
2023-12-30T02:05:22.925Z,21.72
2023-12-30T02:06:22.883Z,21.74
2023-12-30T02:07:22.977Z,21.74
2023-12-30T02:08:22.861Z,21.74
2023-12-30T02:09:22.856Z,21.73
2023-12-30T02:10:22.876Z,21.73
2023-12-30T02:11:22.833Z,21.73
2023-12-30T02:12:22.837Z,21.74
2023-12-30T02:13:22.911Z,21.75
2023-12-30T02:14:23.654Z,21.75
2023-12-30T02:15:23.029Z,21.76
2023-12-30T02:16:22.981Z,21.74
2023-12-30T02:17:22.961Z,21.74
2023-12-30T02:18:23.079Z,21.76
2023-12-30T02:19:23.206Z,21.75
2023-12-30T02:20:23.051Z,21.75
2023-12-30T02:21:23.077Z,21.76
2023-12-30T02:22:23.142Z,21.76
2023-12-30T02:23:23.166Z,21.75
2023-12-30T02:57:47.867Z,22.28
2023-12-30T02:58:23.607Z,22.07
2023-12-30T02:59:22.595Z,21.98
2023-12-30T03:00:22.576Z,21.94
2023-12-30T03:01:22.657Z,21.92
2023-12-30T03:02:22.574Z,21.90
2023-12-30T03:03:22.540Z,21.88
2023-12-30T03:04:22.579Z,21.87
2023-12-30T03:05:22.654Z,21.88
2023-12-30T03:06:22.613Z,21.86
2023-12-30T03:07:22.529Z,21.86
2023-12-30T03:08:22.467Z,21.85
2023-12-30T03:09:22.466Z,21.85
2023-12-30T03:10:22.588Z,21.85
2023-12-30T03:11:22.456Z,21.86
2023-12-30T03:12:22.433Z,21.86
2023-12-30T03:13:22.470Z,21.87
2023-12-30T03:14:22.438Z,21.28
2023-12-30T03:15:22.411Z,20.92
2023-12-30T03:16:22.471Z,20.65
2023-12-30T03:17:22.445Z,20.69
2023-12-30T03:18:22.427Z,20.46
2023-12-30T03:19:22.409Z,20.38
2023-12-30T03:20:22.364Z,20.23
2023-12-30T03:21:22.336Z,20.20
2023-12-30T03:22:22.346Z,20.10
2023-12-30T03:23:22.343Z,20.03
2023-12-30T03:24:22.323Z,19.93
2023-12-30T03:25:22.344Z,19.85
2023-12-30T03:26:22.286Z,19.77
2023-12-30T03:27:22.279Z,19.77
2023-12-30T03:28:22.345Z,19.68
2023-12-30T03:29:22.318Z,19.59
2023-12-30T03:30:22.312Z,19.56
2023-12-30T03:31:22.388Z,19.48
2023-12-30T03:32:22.327Z,19.42
2023-12-30T03:33:22.372Z,19.39
2023-12-30T03:34:22.395Z,19.34
2023-12-30T03:35:22.302Z,19.28
2023-12-30T03:36:22.325Z,19.22
2023-12-30T03:37:22.381Z,19.15
2023-12-30T03:38:22.297Z,19.20
2023-12-30T03:39:22.308Z,19.12
2023-12-30T03:40:22.322Z,19.16
2023-12-30T03:41:22.308Z,19.03
2023-12-30T03:42:22.322Z,19.05
2023-12-30T03:43:22.356Z,19.02
2023-12-30T03:44:22.284Z,18.98
2023-12-30T03:45:22.293Z,18.93
2023-12-30T03:46:22.394Z,18.86
2023-12-30T03:47:22.310Z,18.83
2023-12-30T03:48:22.354Z,18.78
2023-12-30T03:49:22.495Z,18.67
2023-12-30T03:50:22.293Z,18.71
2023-12-30T03:51:22.299Z,18.64
2023-12-30T03:52:22.384Z,18.69
2023-12-30T03:53:22.302Z,18.66
2023-12-30T03:54:22.300Z,18.63
2023-12-30T03:55:22.304Z,18.59
2023-12-30T03:56:22.274Z,18.54
2023-12-30T03:57:22.270Z,18.54
2023-12-30T03:58:22.278Z,18.52
2023-12-30T03:59:22.269Z,18.48
2023-12-30T04:00:22.250Z,18.44
2023-12-30T04:01:22.285Z,18.46
2023-12-30T04:02:22.382Z,18.45
2023-12-30T04:03:22.323Z,18.42
2023-12-30T04:04:22.353Z,18.39
2023-12-30T04:05:22.221Z,18.38
2023-12-30T04:06:22.202Z,18.44
2023-12-30T04:07:22.245Z,18.39
2023-12-30T04:08:22.199Z,18.40
2023-12-30T04:09:22.212Z,18.37
2023-12-30T04:10:22.227Z,18.36
2023-12-30T04:11:22.217Z,18.34
2023-12-30T04:12:22.182Z,18.34
2023-12-30T04:13:22.224Z,18.26
2023-12-30T04:14:22.176Z,18.20
2023-12-30T04:15:22.166Z,18.20
2023-12-30T04:16:22.195Z,18.25
2023-12-30T04:17:22.201Z,18.19
2023-12-30T04:18:22.233Z,18.20
2023-12-30T04:19:22.267Z,18.17
2023-12-30T04:20:22.150Z,18.22
2023-12-30T04:21:22.129Z,18.24
2023-12-30T04:22:22.169Z,18.24
2023-12-30T04:23:22.119Z,18.17
2023-12-30T04:24:22.112Z,18.21
2023-12-30T04:25:22.097Z,18.23
2023-12-30T04:26:22.093Z,18.21
2023-12-30T04:27:22.102Z,18.23
2023-12-30T04:28:22.106Z,18.15
2023-12-30T04:29:22.086Z,18.22
2023-12-30T04:30:22.124Z,18.17
2023-12-30T04:31:22.087Z,18.22
2023-12-30T04:32:22.105Z,18.20
2023-12-30T04:33:22.071Z,18.21
2023-12-30T04:34:22.086Z,18.18
2023-12-30T04:35:22.022Z,18.15
2023-12-30T04:36:22.019Z,18.14
2023-12-30T04:37:22.083Z,18.17
2023-12-30T04:38:22.049Z,18.17
2023-12-30T04:39:22.080Z,18.15
2023-12-30T04:40:29.637Z,18.18
2023-12-30T04:41:29.406Z,18.15
2023-12-30T04:42:29.447Z,18.08
2023-12-30T04:43:29.485Z,18.13
2023-12-30T04:44:29.527Z,18.13
2023-12-30T04:45:29.530Z,18.12
2023-12-30T04:46:29.640Z,18.16
2023-12-30T04:47:29.621Z,18.09
2023-12-30T04:48:29.692Z,18.11
2023-12-30T04:49:29.721Z,18.11
2023-12-30T04:50:29.674Z,18.11
2023-12-30T04:51:29.709Z,18.10
2023-12-30T04:52:29.796Z,18.10
2023-12-30T04:53:29.790Z,18.12
2023-12-30T04:54:31.935Z,18.11
2023-12-30T04:55:29.943Z,18.06
2023-12-30T04:56:29.834Z,18.08
2023-12-30T04:57:29.848Z,18.11
2023-12-30T04:58:29.888Z,18.10
2023-12-30T04:59:33.022Z,18.08
2023-12-30T05:00:29.940Z,18.11
2023-12-30T05:01:30.017Z,18.15
2023-12-30T05:02:29.985Z,18.10
2023-12-30T05:03:30.083Z,18.09
2023-12-30T05:04:30.709Z,18.07
2023-12-30T05:05:30.089Z,18.08
2023-12-30T05:06:30.082Z,18.09
2023-12-30T05:07:30.205Z,18.09
2023-12-30T05:08:30.134Z,18.05
2023-12-30T05:09:30.152Z,18.07
2023-12-30T05:10:30.196Z,18.06
2023-12-30T05:11:30.214Z,18.06
2023-12-30T05:12:30.244Z,18.07
2023-12-30T05:13:30.321Z,18.07
2023-12-30T05:14:30.317Z,18.07
2023-12-30T05:15:30.416Z,18.02
2023-12-30T05:16:30.569Z,18.07
2023-12-30T05:17:30.601Z,18.06
2023-12-30T05:18:30.656Z,18.02
2023-12-30T05:19:30.688Z,18.04
2023-12-30T05:20:30.713Z,17.98
2023-12-30T05:21:30.780Z,18.04
2023-12-30T05:22:30.910Z,18.06
2023-12-30T05:23:30.922Z,18.06
2023-12-30T05:24:30.984Z,18.04
2023-12-30T05:25:31.087Z,18.01
2023-12-30T05:26:31.131Z,18.00
2023-12-30T05:27:31.193Z,18.03
2023-12-30T05:28:31.307Z,18.01
2023-12-30T05:29:31.333Z,18.02
2023-12-30T05:30:31.464Z,18.01
2023-12-30T05:31:31.491Z,18.00
2023-12-30T05:32:31.573Z,18.00
2023-12-30T05:33:31.714Z,17.99
2023-12-30T05:34:31.759Z,18.02
2023-12-30T05:35:31.729Z,18.00
2023-12-30T05:36:31.818Z,17.99
2023-12-30T05:37:32.025Z,17.98
2023-12-30T05:38:31.944Z,18.03
2023-12-30T05:39:32.039Z,18.02
2023-12-30T05:40:32.045Z,18.03
2023-12-30T05:41:32.061Z,18.01
2023-12-30T05:42:32.080Z,18.05
2023-12-30T05:43:32.156Z,18.03
2023-12-30T05:44:32.140Z,18.00
2023-12-30T05:45:32.153Z,17.97
2023-12-30T05:46:32.324Z,17.95
2023-12-30T05:47:32.226Z,17.95
2023-12-30T05:48:32.332Z,17.97
2023-12-30T05:49:32.345Z,17.91
2023-12-30T05:50:32.290Z,17.90
2023-12-30T05:51:32.335Z,17.92
2023-12-30T05:52:32.422Z,17.90
2023-12-30T05:53:32.373Z,17.86
2023-12-30T05:54:32.412Z,17.82
2023-12-30T05:55:32.533Z,17.84
2023-12-30T05:56:32.493Z,17.88
2023-12-30T05:57:34.637Z,17.85
2023-12-30T05:58:32.678Z,17.85
2023-12-30T05:59:32.615Z,17.88
2023-12-30T06:00:32.671Z,17.91
2023-12-30T06:01:32.777Z,17.87
2023-12-30T06:02:32.689Z,17.85
2023-12-30T06:03:32.730Z,17.86
2023-12-30T06:04:32.823Z,17.84
2023-12-30T06:05:32.787Z,17.86
2023-12-30T06:06:33.222Z,17.85
2023-12-30T06:07:32.913Z,17.85
2023-12-30T06:08:32.872Z,17.86
2023-12-30T06:09:32.906Z,17.84
2023-12-30T06:10:32.976Z,17.81
2023-12-30T06:11:32.963Z,17.81
2023-12-30T06:12:32.978Z,17.79
2023-12-30T06:13:33.040Z,17.75
2023-12-30T06:14:33.097Z,17.76
2023-12-30T06:15:33.058Z,17.76
2023-12-30T06:16:33.093Z,17.77
2023-12-30T06:17:33.198Z,17.79
2023-12-30T06:18:33.638Z,17.75
2023-12-30T06:19:33.182Z,17.75
2023-12-30T06:20:33.242Z,17.75
2023-12-30T06:21:33.243Z,17.73
2023-12-30T06:22:33.352Z,17.75
2023-12-30T06:23:33.324Z,17.72
2023-12-30T06:24:33.358Z,17.73
2023-12-30T06:25:33.381Z,17.75
2023-12-30T06:26:33.412Z,17.74
2023-12-30T06:27:33.436Z,17.70
2023-12-30T06:28:33.554Z,17.72
2023-12-30T06:29:35.327Z,17.70
2023-12-30T06:30:33.566Z,17.59
2023-12-30T06:31:33.596Z,17.70
2023-12-30T06:32:33.707Z,17.67
2023-12-30T06:33:33.816Z,17.68
2023-12-30T06:34:34.150Z,17.69
2023-12-30T06:35:33.868Z,17.67
2023-12-30T06:36:33.935Z,17.67
2023-12-30T06:37:34.082Z,17.70
2023-12-30T06:38:33.997Z,17.66
2023-12-30T06:39:34.030Z,17.64
2023-12-30T06:40:34.196Z,17.62
2023-12-30T06:41:34.089Z,17.62
2023-12-30T06:42:34.147Z,17.59
2023-12-30T06:43:34.232Z,17.60
2023-12-30T06:44:34.260Z,17.59
2023-12-30T06:45:34.221Z,17.57
2023-12-30T06:46:34.304Z,17.55
2023-12-30T06:47:34.299Z,17.57
2023-12-30T06:48:34.355Z,17.54
2023-12-30T06:49:34.354Z,17.54
2023-12-30T06:50:34.359Z,17.51
2023-12-30T06:51:34.385Z,17.53
2023-12-30T06:52:34.460Z,17.49
2023-12-30T06:53:34.454Z,17.49
2023-12-30T06:54:34.477Z,17.51
2023-12-30T06:55:38.924Z,17.48
2023-12-30T06:56:35.552Z,17.48
2023-12-30T06:57:34.572Z,17.51
2023-12-30T06:58:34.673Z,17.50
2023-12-30T06:59:34.635Z,17.50
2023-12-30T07:00:34.671Z,17.52
2023-12-30T07:01:34.729Z,17.49
2023-12-30T07:02:34.727Z,17.49
2023-12-30T07:03:34.857Z,17.47
2023-12-30T07:04:34.854Z,17.49
2023-12-30T07:05:34.896Z,17.48
2023-12-30T07:06:34.844Z,17.45
2023-12-30T07:07:35.025Z,17.44
2023-12-30T07:08:34.918Z,17.45
2023-12-30T07:09:34.962Z,17.44
2023-12-30T07:10:35.011Z,17.47
2023-12-30T07:11:34.998Z,17.45
2023-12-30T07:12:35.037Z,17.46
2023-12-30T07:13:35.179Z,17.44
2023-12-30T07:14:35.141Z,17.40
2023-12-30T07:15:35.141Z,17.42
2023-12-30T07:16:35.202Z,17.38
2023-12-30T07:17:35.217Z,17.38
2023-12-30T07:18:35.245Z,17.39
2023-12-30T07:19:35.274Z,17.40
2023-12-30T07:20:35.309Z,17.34
2023-12-30T07:21:35.315Z,17.33
2023-12-30T07:22:35.371Z,17.35
2023-12-30T07:23:35.380Z,17.32
2023-12-30T07:24:35.407Z,17.34
2023-12-30T07:25:35.579Z,17.34
2023-12-30T07:26:35.477Z,17.32
2023-12-30T07:27:35.516Z,17.33
2023-12-30T07:28:35.597Z,17.31
2023-12-30T07:29:35.566Z,17.29
2023-12-30T07:30:35.658Z,17.33
2023-12-30T07:31:35.762Z,17.36
2023-12-30T07:32:35.760Z,17.29
2023-12-30T07:33:35.765Z,17.21
2023-12-30T07:34:35.817Z,17.16
2023-12-30T07:35:35.734Z,17.21
2023-12-30T07:36:35.776Z,17.20
2023-12-30T07:37:35.900Z,17.23
2023-12-30T07:38:35.887Z,17.20
2023-12-30T07:39:35.853Z,17.20
2023-12-30T07:40:36.015Z,17.18
2023-12-30T07:41:35.936Z,17.20
2023-12-30T07:42:35.962Z,17.19
2023-12-30T07:43:36.029Z,17.21
2023-12-30T07:44:36.038Z,17.19
2023-12-30T07:45:36.089Z,17.21
2023-12-30T07:46:36.154Z,17.18
2023-12-30T07:47:36.165Z,17.20
2023-12-30T07:48:36.270Z,17.21
2023-12-30T07:49:36.328Z,17.24
2023-12-30T07:50:36.240Z,17.20
2023-12-30T07:51:36.283Z,17.16
2023-12-30T07:52:36.350Z,17.20
2023-12-30T07:53:36.374Z,17.20
2023-12-30T07:54:36.390Z,17.15
2023-12-30T07:55:36.474Z,17.18
2023-12-30T07:56:36.447Z,17.18
2023-12-30T07:57:36.472Z,17.15
2023-12-30T07:58:36.553Z,17.12
2023-12-30T07:59:36.553Z,17.12
2023-12-30T08:00:36.606Z,17.04
2023-12-30T08:01:36.629Z,17.06
2023-12-30T08:02:36.672Z,17.09
2023-12-30T08:03:36.683Z,17.07
2023-12-30T08:04:36.779Z,17.07
2023-12-30T08:05:36.751Z,17.06
2023-12-30T08:06:36.766Z,17.06
2023-12-30T08:07:36.876Z,17.04
2023-12-30T08:08:36.843Z,17.02
2023-12-30T08:09:36.843Z,17.03
2023-12-30T08:10:36.910Z,17.05
2023-12-30T08:11:49.774Z,17.03
2023-12-30T08:12:38.149Z,17.06
2023-12-30T08:13:37.012Z,17.04
2023-12-30T08:14:37.027Z,17.02
2023-12-30T08:15:37.085Z,17.01
2023-12-30T08:16:37.142Z,17.02
2023-12-30T08:17:37.317Z,17.03
2023-12-30T08:18:37.270Z,17.07
2023-12-30T08:19:37.176Z,17.07
2023-12-30T08:20:37.182Z,17.03
2023-12-30T08:21:37.237Z,17.03
2023-12-30T08:22:37.317Z,17.06
2023-12-30T08:23:37.279Z,17.05
2023-12-30T08:24:37.331Z,17.04
2023-12-30T08:25:37.403Z,17.04
2023-12-30T08:26:37.390Z,17.03
2023-12-30T08:27:37.400Z,17.03
2023-12-30T08:28:37.563Z,17.05
2023-12-30T08:29:37.462Z,17.01
2023-12-30T08:30:37.536Z,17.01
2023-12-30T08:31:37.548Z,17.02
2023-12-30T08:32:37.563Z,17.01
2023-12-30T08:33:37.593Z,17.03
2023-12-30T08:34:37.609Z,17.00
2023-12-30T08:35:37.619Z,16.97
2023-12-30T08:36:37.691Z,16.99
2023-12-30T08:37:37.907Z,17.02
2023-12-30T08:38:37.676Z,17.02
2023-12-30T08:39:37.723Z,17.01
2023-12-30T08:40:37.884Z,17.01
2023-12-30T08:41:37.752Z,16.97
2023-12-30T08:42:37.785Z,16.99
2023-12-30T08:43:37.841Z,16.95
2023-12-30T08:44:37.832Z,16.99
2023-12-30T08:45:37.872Z,16.98
2023-12-30T08:46:38.096Z,16.99
2023-12-30T08:47:37.939Z,16.99
2023-12-30T08:48:38.112Z,16.95
2023-12-30T08:49:37.974Z,16.91
2023-12-30T08:50:38.017Z,16.86
2023-12-30T08:51:38.003Z,16.79
2023-12-30T08:52:38.094Z,16.73
2023-12-30T08:53:38.101Z,16.68
2023-12-30T08:54:38.091Z,16.37
2023-12-30T08:55:38.154Z,15.99
2023-12-30T08:56:38.160Z,15.44
2023-12-30T08:57:38.171Z,14.98
2023-12-30T08:58:38.244Z,14.56
2023-12-30T08:59:38.195Z,14.35
2023-12-30T09:00:38.227Z,14.16
2023-12-30T09:01:38.243Z,14.02
2023-12-30T09:02:38.245Z,13.89
2023-12-30T09:03:38.301Z,13.78
2023-12-30T09:04:38.279Z,13.65
2023-12-30T09:05:38.354Z,13.55
2023-12-30T09:06:38.275Z,13.51
2023-12-30T09:07:38.335Z,13.52
2023-12-30T09:08:38.242Z,13.58
2023-12-30T09:09:38.280Z,13.66
2023-12-30T09:10:38.486Z,13.79
2023-12-30T09:11:38.420Z,13.89
2023-12-30T09:12:38.429Z,13.95
2023-12-30T09:13:38.524Z,13.98
2023-12-30T09:14:38.442Z,14.04
2023-12-30T09:15:38.460Z,14.07
2023-12-30T09:16:38.645Z,14.11
2023-12-30T09:17:38.534Z,14.16
2023-12-30T09:18:38.561Z,14.14
2023-12-30T09:19:38.673Z,14.17
2023-12-30T09:20:38.480Z,14.16
2023-12-30T09:21:38.488Z,14.13
2023-12-30T09:22:38.514Z,14.09
2023-12-30T09:23:38.473Z,14.13
2023-12-30T09:24:38.499Z,14.07
2023-12-30T09:25:38.602Z,13.97
2023-12-30T09:26:38.476Z,14.09
2023-12-30T09:27:38.483Z,14.12
2023-12-30T09:28:38.570Z,14.17
2023-12-30T09:29:38.479Z,14.19
2023-12-30T09:30:38.496Z,14.13
2023-12-30T09:31:38.496Z,14.24
2023-12-30T09:32:38.492Z,14.32
2023-12-30T09:33:38.592Z,14.33
2023-12-30T09:34:42.125Z,14.38
2023-12-30T09:35:39.494Z,14.36
2023-12-30T09:36:38.426Z,14.34
2023-12-30T09:37:38.494Z,14.38
2023-12-30T09:38:38.422Z,14.40
2023-12-30T09:39:38.409Z,14.48
2023-12-30T09:40:38.518Z,14.55
2023-12-30T09:41:38.387Z,14.60
2023-12-30T09:42:38.385Z,14.65
2023-12-30T09:43:38.394Z,14.71
2023-12-30T09:44:38.374Z,14.81
2023-12-30T09:45:38.368Z,14.84
2023-12-30T09:46:38.369Z,14.87
2023-12-30T09:47:38.395Z,14.87
2023-12-30T09:48:38.439Z,14.92
2023-12-30T09:49:38.436Z,15.03
2023-12-30T09:50:38.361Z,15.19
2023-12-30T09:51:38.316Z,15.34
2023-12-30T09:52:38.358Z,15.51
2023-12-30T09:53:38.291Z,15.65
2023-12-30T09:54:45.718Z,15.84
2023-12-30T09:55:39.467Z,15.99
2023-12-30T09:56:38.283Z,16.14
2023-12-30T09:57:38.269Z,16.29
2023-12-30T09:58:38.345Z,16.41
2023-12-30T09:59:38.284Z,16.51
2023-12-30T10:00:38.286Z,16.61
2023-12-30T10:01:40.828Z,16.68
2023-12-30T10:02:38.275Z,16.74
2023-12-30T10:03:38.308Z,16.78
2023-12-30T10:04:38.334Z,16.81
2023-12-30T10:05:38.395Z,16.81
2023-12-30T10:06:38.294Z,16.85
2023-12-30T10:07:38.375Z,16.86
2023-12-30T10:08:38.313Z,16.86
2023-12-30T10:09:38.328Z,16.88
2023-12-30T10:10:38.424Z,16.88
2023-12-30T10:11:38.314Z,16.92
2023-12-30T10:12:38.307Z,16.93
2023-12-30T10:13:38.375Z,16.93
2023-12-30T10:14:38.341Z,16.95
2023-12-30T10:15:38.343Z,16.95
2023-12-30T10:16:38.442Z,17.00
2023-12-30T10:17:38.417Z,17.03
2023-12-30T10:18:38.417Z,17.03
2023-12-30T10:19:38.393Z,17.04
2023-12-30T10:20:38.319Z,17.05
2023-12-30T10:21:38.421Z,17.07
2023-12-30T10:22:38.413Z,17.11
2023-12-30T10:23:38.350Z,17.11
2023-12-30T10:24:38.366Z,17.15
2023-12-30T10:25:38.504Z,17.15
2023-12-30T10:26:38.362Z,17.17
2023-12-30T10:27:38.343Z,17.20
2023-12-30T10:28:38.410Z,17.20
2023-12-30T10:29:46.907Z,17.23
2023-12-30T10:30:39.388Z,17.27
2023-12-30T10:31:38.366Z,17.27
2023-12-30T10:32:38.424Z,17.30
2023-12-30T10:33:38.415Z,17.31
2023-12-30T10:34:38.359Z,17.30
2023-12-30T10:35:38.412Z,17.35
2023-12-30T10:36:38.331Z,17.34
2023-12-30T10:37:38.383Z,17.35
2023-12-30T10:38:38.346Z,17.36
2023-12-30T10:39:38.334Z,17.39
2023-12-30T10:40:38.368Z,17.40
2023-12-30T10:41:38.341Z,17.41
2023-12-30T10:42:38.332Z,17.44
2023-12-30T10:43:38.430Z,17.44
2023-12-30T10:44:38.337Z,17.45
2023-12-30T10:45:38.494Z,17.47
2023-12-30T10:46:38.471Z,17.47
2023-12-30T10:47:38.366Z,17.50
2023-12-30T10:48:38.320Z,17.50
2023-12-30T10:49:38.423Z,17.51
2023-12-30T10:50:38.360Z,17.51
2023-12-30T10:51:38.349Z,17.54
2023-12-30T10:52:38.470Z,17.53
2023-12-30T10:53:38.331Z,17.55
2023-12-30T10:54:38.346Z,17.55
2023-12-30T10:55:38.370Z,17.55
2023-12-30T10:56:38.339Z,17.58
2023-12-30T10:57:38.440Z,17.57
2023-12-30T10:58:38.492Z,17.58
2023-12-30T10:59:38.439Z,17.59
2023-12-30T11:00:38.351Z,17.60
2023-12-30T11:01:38.353Z,17.60
2023-12-30T11:02:38.317Z,17.62
2023-12-30T11:03:38.324Z,17.61
2023-12-30T11:04:38.346Z,17.61
2023-12-30T11:05:38.403Z,17.62
2023-12-30T11:06:38.379Z,17.63
2023-12-30T11:07:38.438Z,17.62
2023-12-30T11:08:38.293Z,17.63
2023-12-30T11:09:38.335Z,17.64
2023-12-30T11:10:38.352Z,17.64
2023-12-30T11:11:38.294Z,17.66
2023-12-30T11:12:38.386Z,17.65
2023-12-30T11:13:38.331Z,17.65
2023-12-30T11:14:38.314Z,17.67
2023-12-30T11:15:38.278Z,17.67
2023-12-30T11:16:38.304Z,17.66
2023-12-30T11:17:38.306Z,17.66
2023-12-30T11:18:38.350Z,17.70
2023-12-30T11:19:38.417Z,17.70
2023-12-30T11:20:38.320Z,17.70
2023-12-30T11:21:38.271Z,17.68
2023-12-30T11:22:38.331Z,17.69
2023-12-30T11:23:38.276Z,17.71
2023-12-30T11:24:38.262Z,17.70
2023-12-30T11:25:38.295Z,17.72
2023-12-30T11:26:38.935Z,17.71
2023-12-30T11:27:38.287Z,17.71
2023-12-30T11:28:38.375Z,17.70
2023-12-30T11:29:38.233Z,17.71
2023-12-30T11:30:38.264Z,17.71
2023-12-30T11:31:38.269Z,17.72
2023-12-30T11:32:38.360Z,17.74
2023-12-30T11:33:38.291Z,17.75
2023-12-30T11:34:38.224Z,17.74
2023-12-30T11:35:38.206Z,17.75
2023-12-30T11:36:38.194Z,17.75
2023-12-30T11:37:38.254Z,17.75
2023-12-30T11:38:38.180Z,17.75
2023-12-30T11:39:38.186Z,17.77
2023-12-30T11:40:38.201Z,17.77
2023-12-30T11:41:38.189Z,17.77
2023-12-30T11:42:45.595Z,17.77
2023-12-30T11:43:39.255Z,17.78
2023-12-30T11:44:38.196Z,17.80
2023-12-30T11:45:38.169Z,17.79
2023-12-30T11:46:38.450Z,17.80
2023-12-30T11:47:38.208Z,17.80
2023-12-30T11:48:38.170Z,17.81
2023-12-30T11:49:38.170Z,17.81
2023-12-30T11:50:38.148Z,17.80
2023-12-30T11:51:38.153Z,17.79
2023-12-30T11:52:38.275Z,17.81
2023-12-30T11:53:38.137Z,17.82
2023-12-30T11:54:38.160Z,17.80
2023-12-30T11:55:38.141Z,17.82
2023-12-30T11:56:38.123Z,17.81
2023-12-30T11:57:38.099Z,17.80
2023-12-30T11:58:38.235Z,17.82
2023-12-30T11:59:38.217Z,17.82
2023-12-30T12:00:38.270Z,17.82
2023-12-30T12:01:38.278Z,17.81
2023-12-30T12:02:38.138Z,17.81
2023-12-30T12:03:38.202Z,17.80
2023-12-30T12:04:38.318Z,17.80
2023-12-30T12:05:38.156Z,17.80
2023-12-30T12:06:38.139Z,17.82
2023-12-30T12:07:38.251Z,17.82
2023-12-30T12:08:38.075Z,17.84
2023-12-30T12:09:38.082Z,17.80
2023-12-30T12:10:38.112Z,17.82
2023-12-30T12:11:38.066Z,17.82
2023-12-30T12:12:38.055Z,17.82
2023-12-30T12:13:38.083Z,17.82
2023-12-30T12:14:38.091Z,17.82
2023-12-30T12:15:38.151Z,17.82
2023-12-30T12:16:38.359Z,17.82
2023-12-30T12:17:38.324Z,17.83
2023-12-30T12:18:38.250Z,17.83
2023-12-30T12:19:38.402Z,17.84
2023-12-30T12:20:38.258Z,17.82
2023-12-30T12:21:38.288Z,17.84
2023-12-30T12:22:38.383Z,17.84
2023-12-30T12:23:38.335Z,17.82
2023-12-30T12:24:38.357Z,17.82
2023-12-30T12:25:38.391Z,17.82
2023-12-30T12:26:38.388Z,17.82
2023-12-30T12:27:38.414Z,17.82
2023-12-30T12:28:38.517Z,17.84
2023-12-30T12:29:38.454Z,17.84
2023-12-30T12:30:38.500Z,17.83
2023-12-30T12:31:38.543Z,17.84
2023-12-30T12:32:38.624Z,17.83
2023-12-30T12:33:38.549Z,17.84
2023-12-30T12:34:38.614Z,17.84
2023-12-30T12:35:38.522Z,17.84
2023-12-30T12:36:38.478Z,17.84
2023-12-30T12:37:38.517Z,17.83
2023-12-30T12:38:38.544Z,17.84
2023-12-30T12:39:38.882Z,17.85
2023-12-30T12:40:38.462Z,17.85
2023-12-30T12:41:38.471Z,17.84
2023-12-30T12:42:38.392Z,17.85
2023-12-30T12:43:38.437Z,17.84
2023-12-30T12:44:48.110Z,17.84
2023-12-30T12:45:38.350Z,17.86
2023-12-30T12:46:38.377Z,17.84
2023-12-30T12:47:39.163Z,17.81
2023-12-30T12:48:38.360Z,17.82
2023-12-30T12:49:38.309Z,17.83
2023-12-30T12:50:38.285Z,17.83
2023-12-30T12:51:38.306Z,17.84
2023-12-30T12:52:38.324Z,17.83
2023-12-30T12:53:38.261Z,17.85
2023-12-30T12:54:43.364Z,17.86
2023-12-30T12:55:38.307Z,17.86
2023-12-30T12:56:38.207Z,17.86
2023-12-30T12:57:38.302Z,17.86
2023-12-30T12:58:38.310Z,17.88
2023-12-30T12:59:38.202Z,17.86
2023-12-30T13:00:38.191Z,17.86
2023-12-30T13:01:38.216Z,17.87
2023-12-30T13:02:38.156Z,17.87
2023-12-30T13:03:38.191Z,17.88
2023-12-30T13:04:38.310Z,17.87
2023-12-30T13:05:38.155Z,17.88
2023-12-30T13:06:38.099Z,17.89
2023-12-30T13:07:38.098Z,17.89
2023-12-30T13:08:39.362Z,17.90
2023-12-30T13:09:38.061Z,17.91
2023-12-30T13:10:38.360Z,17.92
2023-12-30T13:11:38.022Z,17.93
2023-12-30T13:12:38.019Z,17.93
2023-12-30T13:13:40.729Z,17.92
2023-12-30T13:14:37.980Z,17.93
2023-12-30T13:15:37.969Z,17.93
2023-12-30T13:16:37.994Z,17.94
2023-12-30T13:17:37.910Z,17.96
2023-12-30T13:18:37.955Z,17.95
2023-12-30T13:19:37.901Z,17.95
2023-12-30T13:20:37.951Z,17.95
2023-12-30T13:21:37.824Z,17.97
2023-12-30T13:22:37.903Z,17.97
2023-12-30T13:23:37.783Z,17.97
2023-12-30T13:24:37.758Z,17.97
2023-12-30T13:25:37.823Z,17.99